createdAt,value
2019-05-26T00:00:12.557Z,5.90
2019-05-26T00:02:38.873Z,5.13
2019-05-26T00:05:06.331Z,6.43
2019-05-26T00:07:32.763Z,6.93
2019-05-26T00:09:59.116Z,6.27
2019-05-26T00:12:25.426Z,6.83
2019-05-26T00:14:51.958Z,7.17
2019-05-26T00:17:18.393Z,7.50
2019-05-26T00:19:44.824Z,7.87
2019-05-26T00:22:11.154Z,7.90
2019-05-26T00:24:37.427Z,8.30
2019-05-26T00:27:03.939Z,8.30
2019-05-26T00:29:30.673Z,8.07
2019-05-26T00:31:57.091Z,7.50
2019-05-26T00:34:23.420Z,8.60
2019-05-26T00:36:49.751Z,8.37
2019-05-26T00:39:16.186Z,8.03
2019-05-26T00:41:42.518Z,7.80
2019-05-26T00:44:08.844Z,8.10
2019-05-26T00:46:35.277Z,8.27
2019-05-26T00:49:01.915Z,7.67
2019-05-26T00:51:28.350Z,7.17
2019-05-26T00:53:54.934Z,8.00
2019-05-26T00:56:21.421Z,7.37
2019-05-26T00:58:47.753Z,7.70
2019-05-26T01:01:14.119Z,8.43
2019-05-26T01:03:40.512Z,8.53
2019-05-26T01:06:06.843Z,8.10
2019-05-26T01:08:33.173Z,7.20
2019-05-26T01:11:01.413Z,7.97
2019-05-26T01:13:27.580Z,8.27
2019-05-26T01:15:53.824Z,8.80
2019-05-26T01:18:20.237Z,7.30
2019-05-26T01:20:46.562Z,7.70
2019-05-26T01:23:12.964Z,8.43
2019-05-26T01:25:39.381Z,8.43
2019-05-26T01:28:06.109Z,8.40
2019-05-26T01:30:35.214Z,8.83
2019-05-26T01:33:01.904Z,8.67
2019-05-26T01:35:28.390Z,9.07
2019-05-26T01:37:54.672Z,8.70
2019-05-26T01:40:24.706Z,9.97
2019-05-26T01:42:51.119Z,8.97
2019-05-26T01:45:17.550Z,8.93
2019-05-26T01:47:43.985Z,11.23
2019-05-26T01:50:11.051Z,10.43
2019-05-26T01:52:37.670Z,10.37
2019-05-26T01:55:04.890Z,11.37
2019-05-26T01:57:31.263Z,12.77
2019-05-26T01:59:57.582Z,10.97
2019-05-26T02:02:23.911Z,11.80
2019-05-26T02:04:50.245Z,12.70
2019-05-26T02:07:17.733Z,12.73
2019-05-26T02:09:44.034Z,14.80
2019-05-26T02:12:10.681Z,14.43
2019-05-26T02:14:36.996Z,14.47
2019-05-26T02:17:03.889Z,15.87
2019-05-26T02:19:30.273Z,14.53
2019-05-26T02:21:56.807Z,14.60
2019-05-26T02:24:23.139Z,15.50
2019-05-26T02:26:49.381Z,15.53
2019-05-26T02:29:15.845Z,16.03
2019-05-26T02:31:42.159Z,17.20
2019-05-26T02:34:08.418Z,17.53
2019-05-26T02:36:34.723Z,17.00
2019-05-26T02:39:03.369Z,16.93
2019-05-26T02:41:29.401Z,17.70
2019-05-26T02:43:55.730Z,19.20
2019-05-26T02:46:22.256Z,18.77
2019-05-26T02:48:48.600Z,20.30
2019-05-26T02:51:14.852Z,22.03
2019-05-26T02:53:41.274Z,23.00
2019-05-26T02:56:07.798Z,20.90
2019-05-26T02:58:34.127Z,21.47
2019-05-26T03:01:01.698Z,21.03
2019-05-26T03:03:28.205Z,23.20
2019-05-26T03:05:55.371Z,21.47
2019-05-26T03:08:22.195Z,21.07
2019-05-26T03:10:49.766Z,21.27
2019-05-26T03:13:16.128Z,20.90
2019-05-26T03:15:43.302Z,21.40
2019-05-26T03:18:10.206Z,20.50
2019-05-26T03:20:40.494Z,20.27
2019-05-26T03:23:07.662Z,21.97
2019-05-26T03:25:36.146Z,19.33
2019-05-26T03:28:06.877Z,19.90
2019-05-26T03:30:34.083Z,20.17
2019-05-26T03:33:00.572Z,20.83
2019-05-26T03:35:26.895Z,20.77
2019-05-26T03:37:53.231Z,21.33
2019-05-26T03:40:19.553Z,19.60
2019-05-26T03:42:45.823Z,19.37
2019-05-26T03:45:15.953Z,18.33
2019-05-26T03:47:42.575Z,18.07
2019-05-26T03:50:09.174Z,19.03
2019-05-26T03:52:35.571Z,19.13
2019-05-26T03:55:03.086Z,18.53
2019-05-26T03:57:29.500Z,20.27
2019-05-26T03:59:55.781Z,19.07
2019-05-26T04:02:22.161Z,19.97
2019-05-26T04:04:48.712Z,21.00
2019-05-26T04:07:15.131Z,20.17
2019-05-26T04:09:41.419Z,20.23
2019-05-26T04:12:07.788Z,21.23
2019-05-26T04:14:34.131Z,20.63
2019-05-26T04:17:00.420Z,22.57
2019-05-26T04:19:26.784Z,21.00
2019-05-26T04:21:53.124Z,20.27
2019-05-26T04:24:19.547Z,20.43
2019-05-26T04:26:45.989Z,21.97
2019-05-26T04:29:12.409Z,22.50
2019-05-26T04:31:38.743Z,21.73
2019-05-26T04:34:05.479Z,21.97
2019-05-26T04:36:31.809Z,24.17
2019-05-26T04:38:58.149Z,22.77
2019-05-26T04:41:24.702Z,22.70
2019-05-26T04:43:51.109Z,23.80
2019-05-26T04:46:17.438Z,22.87
2019-05-26T04:48:43.767Z,24.10
2019-05-26T04:51:10.334Z,23.80
2019-05-26T04:53:36.718Z,25.20
2019-05-26T04:56:03.361Z,25.30
2019-05-26T04:58:29.751Z,24.73
2019-05-26T05:00:56.033Z,25.80
2019-05-26T05:03:22.291Z,25.63
2019-05-26T05:05:48.591Z,26.67
2019-05-26T05:08:14.932Z,27.23
2019-05-26T05:10:43.093Z,26.90
2019-05-26T05:13:09.734Z,27.50
2019-05-26T05:15:36.071Z,26.77
2019-05-26T05:18:02.496Z,27.37
2019-05-26T05:20:28.828Z,26.80
2019-05-26T05:22:55.519Z,27.00
2019-05-26T05:25:21.843Z,26.33
2019-05-26T05:27:48.615Z,28.30
2019-05-26T05:30:15.173Z,27.43
2019-05-26T05:32:41.503Z,25.97
2019-05-26T05:35:08.857Z,26.17
2019-05-26T05:37:35.267Z,25.53
2019-05-26T05:40:03.463Z,27.30
2019-05-26T05:42:30.120Z,25.60
2019-05-26T05:44:56.534Z,25.53
2019-05-26T05:47:22.825Z,26.13
2019-05-26T05:49:49.197Z,25.90
2019-05-26T05:52:15.526Z,25.67
2019-05-26T05:54:41.857Z,24.40
2019-05-26T05:57:08.393Z,25.57
2019-05-26T05:59:34.824Z,23.97
2019-05-26T06:02:01.054Z,22.73
2019-05-26T06:04:27.385Z,22.70
2019-05-26T06:06:53.715Z,24.73
2019-05-26T06:09:19.970Z,24.07
2019-05-26T06:11:46.375Z,24.27
2019-05-26T06:14:14.539Z,23.30
2019-05-26T06:16:41.045Z,25.10
2019-05-26T06:19:07.463Z,22.73
2019-05-26T06:21:33.898Z,22.30
2019-05-26T06:24:00.328Z,22.57
2019-05-26T06:26:26.658Z,21.07
2019-05-26T06:28:53.092Z,21.40
2019-05-26T06:31:19.421Z,20.97
2019-05-26T06:33:45.760Z,20.73
2019-05-26T06:36:12.082Z,20.03
2019-05-26T06:38:38.619Z,20.03
2019-05-26T06:41:05.056Z,19.77
2019-05-26T06:43:31.382Z,18.47
2019-05-26T06:45:57.655Z,19.10
2019-05-26T06:48:26.802Z,19.07
2019-05-26T06:50:52.218Z,20.63
2019-05-26T06:53:18.550Z,20.10
2019-05-26T06:55:44.878Z,17.90
2019-05-26T06:58:11.311Z,17.83
2019-05-26T07:00:37.644Z,17.97
2019-05-26T07:03:04.196Z,17.57
2019-05-26T07:05:30.621Z,17.43
2019-05-26T07:07:57.043Z,17.37
2019-05-26T07:10:23.408Z,17.90
2019-05-26T07:12:49.803Z,17.27
2019-05-26T07:15:17.671Z,16.47
2019-05-26T07:17:44.001Z,18.43
2019-05-26T07:20:10.638Z,15.87
2019-05-26T07:22:37.175Z,16.77
2019-05-26T07:25:05.127Z,16.33
2019-05-26T07:27:31.471Z,15.23
2019-05-26T07:29:58.108Z,16.47
2019-05-26T07:32:24.542Z,15.57
2019-05-26T07:34:52.392Z,15.37
2019-05-26T07:37:18.741Z,14.27
2019-05-26T07:39:45.072Z,14.30
2019-05-26T07:42:11.456Z,15.37
2019-05-26T07:44:37.834Z,14.47
2019-05-26T07:47:04.478Z,14.93
2019-05-26T07:49:30.802Z,14.87
2019-05-26T07:51:57.565Z,14.33
2019-05-26T07:54:25.870Z,12.73
2019-05-26T07:56:51.951Z,14.27
2019-05-26T07:59:18.602Z,13.80
2019-05-26T08:01:45.012Z,13.60
2019-05-26T08:04:11.244Z,14.03
2019-05-26T08:06:37.574Z,14.63
2019-05-26T08:09:06.766Z,14.13
2019-05-26T08:11:33.101Z,13.93
2019-05-26T08:13:59.430Z,12.53
2019-05-26T08:16:25.764Z,12.90
2019-05-26T08:18:51.976Z,11.63
2019-05-26T08:21:18.301Z,12.20
2019-05-26T08:23:44.677Z,12.63
2019-05-26T08:26:11.015Z,13.00
2019-05-26T08:28:37.637Z,12.03
2019-05-26T08:31:03.947Z,12.27
2019-05-26T08:33:30.234Z,12.07
2019-05-26T08:35:58.257Z,11.63
2019-05-26T08:38:24.577Z,11.33
2019-05-26T08:40:50.907Z,10.73
2019-05-26T08:43:17.177Z,11.33
2019-05-26T08:45:43.568Z,11.43
2019-05-26T08:48:10.000Z,11.07
2019-05-26T08:50:36.333Z,11.03
2019-05-26T08:53:03.283Z,10.53
2019-05-26T08:55:29.711Z,11.03
2019-05-26T08:57:56.040Z,11.13
2019-05-26T09:00:22.989Z,10.50
2019-05-26T09:02:50.685Z,9.10
2019-05-26T09:05:17.391Z,9.70
2019-05-26T09:07:44.064Z,9.43
2019-05-26T09:10:11.275Z,9.40
2019-05-26T09:12:37.948Z,8.60
2019-05-26T09:15:06.306Z,9.03
2019-05-26T09:17:32.727Z,8.47
2019-05-26T09:19:59.065Z,8.40
2019-05-26T09:22:25.505Z,8.53
2019-05-26T09:24:51.919Z,9.80
2019-05-26T09:27:18.356Z,8.83
2019-05-26T09:29:44.625Z,9.77
2019-05-26T09:32:10.912Z,8.73
2019-05-26T09:34:37.248Z,9.17
2019-05-26T09:37:03.894Z,8.37
2019-05-26T09:39:30.947Z,8.37
2019-05-26T09:41:57.469Z,8.20
2019-05-26T09:44:27.708Z,7.40
2019-05-26T09:46:54.019Z,7.43
2019-05-26T09:49:20.298Z,8.23
2019-05-26T09:51:46.721Z,7.50
2019-05-26T09:54:13.110Z,6.80
2019-05-26T09:56:39.546Z,7.17
2019-05-26T10:11:21.206Z,7.30
2019-05-26T10:13:47.539Z,7.60
2019-05-26T10:16:13.810Z,7.77
2019-05-26T10:18:40.302Z,9.10
2019-05-26T10:21:06.634Z,8.50
2019-05-26T10:23:32.962Z,7.90
2019-05-26T10:25:59.293Z,8.60
2019-05-26T10:28:25.618Z,8.80
2019-05-26T10:30:52.057Z,8.03
2019-05-26T10:33:19.792Z,8.60
2019-05-26T10:35:46.051Z,8.97
2019-05-26T10:38:12.316Z,8.73
2019-05-26T10:40:38.711Z,8.20
2019-05-26T10:43:05.041Z,9.17
2019-05-26T10:45:34.308Z,8.13
2019-05-26T10:47:59.545Z,8.60
2019-05-26T10:50:25.877Z,8.80
2019-05-26T10:52:52.205Z,8.60
2019-05-26T10:55:18.538Z,8.33
2019-05-26T10:57:44.869Z,8.63
2019-05-26T11:00:11.300Z,8.87
2019-05-26T11:02:37.631Z,8.00
2019-05-26T11:05:04.883Z,8.87
2019-05-26T11:07:31.189Z,9.33
2019-05-26T11:09:57.503Z,8.37
2019-05-26T11:12:24.096Z,8.87
2019-05-26T11:14:50.731Z,8.17
2019-05-26T11:17:17.045Z,8.60
2019-05-26T11:19:43.479Z,9.07
2019-05-26T11:22:09.808Z,8.87
2019-05-26T11:24:36.091Z,7.60
2019-05-26T11:27:09.220Z,8.37
2019-05-26T11:29:30.851Z,7.97
2019-05-26T11:31:57.280Z,8.37
2019-05-26T11:34:23.610Z,7.70
2019-05-26T11:36:50.052Z,7.90
2019-05-26T11:39:16.355Z,6.87
2019-05-26T11:41:43.113Z,8.10
2019-05-26T11:44:17.596Z,6.43
2019-05-26T11:46:37.621Z,7.60
2019-05-26T11:49:04.052Z,8.18
2019-05-26T11:51:30.707Z,8.20
2019-05-26T11:53:57.225Z,7.50
2019-05-26T11:56:23.587Z,8.57
2019-05-26T11:58:50.020Z,8.33
2019-05-26T12:01:16.356Z,8.03
2019-05-26T12:03:42.812Z,7.00
2019-05-26T12:06:09.086Z,8.10
2019-05-26T12:08:35.413Z,8.33
2019-05-26T12:11:01.845Z,8.37
2019-05-26T12:13:28.154Z,9.03
2019-05-26T12:15:54.721Z,8.00
2019-05-26T12:18:21.123Z,7.92
2019-05-26T12:20:47.782Z,8.60
2019-05-26T12:23:15.757Z,7.77
2019-05-26T12:25:42.023Z,8.33
2019-05-26T12:28:08.386Z,8.63
2019-05-26T12:30:34.719Z,7.93
2019-05-26T12:33:01.051Z,8.10
2019-05-26T12:35:41.615Z,8.33
2019-05-26T12:38:07.945Z,9.77
2019-05-26T12:40:34.606Z,8.77
2019-05-26T12:43:01.014Z,8.17
2019-05-26T12:45:27.343Z,7.07
2019-05-26T12:47:53.675Z,7.93
2019-05-26T12:50:20.417Z,8.03
2019-05-26T12:52:46.744Z,8.83
2019-05-26T12:55:14.419Z,8.97
2019-05-26T12:57:40.880Z,9.03
2019-05-26T13:00:08.477Z,8.63
2019-05-26T13:02:34.934Z,10.33
2019-05-26T13:05:01.273Z,10.60
2019-05-26T13:07:27.988Z,9.90
2019-05-26T13:09:54.338Z,10.83
2019-05-26T13:12:20.689Z,10.90
2019-05-26T13:14:47.100Z,10.00
2019-05-26T13:17:13.554Z,10.70
2019-05-26T13:19:39.965Z,11.10
2019-05-26T13:22:06.295Z,9.80
2019-05-26T13:24:32.629Z,11.23
2019-05-26T13:26:59.055Z,9.60
2019-05-26T13:29:26.067Z,9.23
2019-05-26T13:31:52.741Z,8.87
2019-05-26T13:34:19.071Z,8.73
2019-05-26T13:36:45.298Z,10.60
2019-05-26T13:39:11.630Z,10.13
2019-05-26T13:41:38.372Z,9.73
2019-05-26T13:44:05.099Z,10.27
2019-05-26T13:46:31.440Z,8.60
2019-05-26T13:48:58.080Z,8.90
2019-05-26T13:51:24.408Z,9.43
2019-05-26T13:53:50.668Z,9.60
2019-05-26T13:56:17.293Z,9.27
2019-05-26T13:58:43.604Z,9.03
2019-05-26T14:01:09.938Z,9.03
2019-05-26T14:03:36.265Z,8.73
2019-05-26T14:06:02.768Z,9.03
2019-05-26T14:08:29.236Z,8.63
2019-05-26T14:10:55.666Z,8.47
2019-05-26T14:13:22.099Z,8.33
2019-05-26T14:15:49.467Z,8.80
2019-05-26T14:18:18.087Z,8.90
2019-05-26T14:20:44.281Z,7.50
2019-05-26T14:23:10.902Z,9.00
2019-05-26T14:25:37.437Z,8.77
2019-05-26T14:28:04.896Z,8.57
2019-05-26T14:30:31.234Z,8.13
2019-05-26T14:32:57.656Z,7.83
2019-05-26T14:35:24.222Z,8.07
2019-05-26T14:37:50.632Z,7.13
2019-05-26T14:40:17.674Z,8.27
2019-05-26T14:42:44.003Z,6.70
2019-05-26T14:45:10.893Z,7.17
2019-05-26T14:47:37.277Z,7.30
2019-05-26T14:50:05.861Z,7.07
2019-05-26T14:52:32.136Z,6.60
2019-05-26T14:54:58.521Z,6.60
2019-05-26T14:57:24.853Z,6.80
2019-05-26T14:59:51.285Z,7.30
2019-05-26T15:02:17.718Z,6.23
2019-05-26T15:04:44.007Z,5.83
2019-05-26T15:07:10.305Z,6.40
2019-05-26T15:09:36.709Z,5.97
2019-05-26T15:12:03.269Z,5.30
2019-05-26T15:14:29.586Z,5.50
2019-05-26T15:16:55.904Z,5.93
2019-05-26T15:19:22.575Z,5.63
2019-05-26T15:21:48.974Z,5.30
2019-05-26T15:24:15.201Z,5.30
2019-05-26T15:26:41.530Z,4.97
2019-05-26T15:29:07.861Z,4.93
2019-05-26T15:31:34.197Z,4.97
2019-05-26T15:34:00.628Z,4.43
2019-05-26T15:36:26.957Z,4.30
2019-05-26T15:38:53.252Z,4.30
2019-05-26T15:41:19.618Z,4.40
2019-05-26T15:43:45.948Z,3.90
2019-05-26T15:46:24.169Z,3.47
2019-05-26T15:48:40.332Z,3.53
2019-05-26T15:51:06.689Z,3.90
2019-05-26T15:53:32.933Z,3.80
2019-05-26T15:55:59.342Z,3.33
2019-05-26T15:58:25.570Z,3.27
2019-05-26T16:00:51.902Z,2.97
2019-05-26T16:03:18.161Z,3.33
2019-05-26T16:05:44.506Z,2.70
2019-05-26T16:08:10.896Z,3.50
2019-05-26T16:10:37.224Z,2.70
2019-05-26T16:13:03.573Z,2.97
2019-05-26T16:15:29.991Z,3.10
2019-05-26T16:17:56.422Z,3.47
2019-05-26T16:20:22.767Z,3.00
2019-05-26T16:22:49.904Z,3.60
2019-05-26T16:25:16.667Z,3.20
2019-05-26T16:27:43.078Z,3.20
2019-05-26T16:30:10.527Z,3.20
2019-05-26T16:32:37.062Z,3.13
2019-05-26T16:35:04.120Z,3.23
2019-05-26T16:37:30.440Z,3.40
2019-05-26T16:39:57.140Z,3.23
2019-05-26T16:42:23.509Z,3.10
2019-05-26T16:44:51.595Z,2.97
2019-05-26T16:47:17.924Z,2.93
2019-05-26T16:49:44.242Z,3.43
2019-05-26T16:52:10.575Z,3.27
2019-05-26T16:54:36.903Z,3.27
2019-05-26T16:57:03.540Z,3.33
2019-05-26T16:59:30.020Z,3.70
2019-05-26T17:01:56.305Z,3.23
2019-05-26T17:04:22.634Z,3.53
2019-05-26T17:06:48.910Z,3.30
2019-05-26T17:09:15.514Z,3.30
2019-05-26T17:11:41.939Z,2.90
2019-05-26T17:14:08.264Z,3.20
2019-05-26T17:16:34.594Z,2.93
2019-05-26T17:19:00.923Z,2.73
2019-05-26T17:21:27.254Z,2.83
2019-05-26T17:23:53.686Z,3.47
2019-05-26T17:26:20.019Z,3.63
2019-05-26T17:28:46.346Z,3.30
2019-05-26T17:31:12.883Z,3.43
2019-05-26T17:33:39.162Z,3.03
2019-05-26T17:36:05.543Z,2.90
2019-05-26T17:38:31.875Z,3.10
2019-05-26T17:40:58.308Z,3.37
2019-05-26T17:43:24.743Z,3.10
2019-05-26T17:45:52.992Z,3.37
2019-05-26T17:48:19.190Z,3.33
2019-05-26T17:50:45.575Z,2.60
2019-05-26T17:53:12.006Z,3.20
2019-05-26T17:55:38.440Z,3.20
2019-05-26T17:58:04.770Z,2.77
2019-05-26T18:00:31.109Z,3.00
2019-05-26T18:02:57.534Z,3.23
2019-05-26T18:05:23.966Z,2.97
2019-05-26T18:07:50.405Z,3.10
2019-05-26T18:10:17.249Z,3.20
2019-05-26T18:12:43.573Z,2.70
2019-05-26T18:15:10.250Z,3.20
2019-05-26T18:17:46.277Z,2.83
2019-05-26T18:20:05.795Z,2.97
2019-05-26T18:22:32.448Z,3.50
2019-05-26T18:24:59.384Z,3.23
2019-05-26T18:27:26.108Z,3.33
2019-05-26T18:29:52.431Z,3.00
2019-05-26T18:32:18.859Z,2.90
2019-05-26T18:34:45.407Z,3.47
2019-05-26T18:37:11.724Z,2.70
2019-05-26T18:39:38.044Z,3.23
2019-05-26T18:42:04.397Z,3.33
2019-05-26T18:44:30.818Z,3.13
2019-05-26T18:46:57.149Z,3.20
2019-05-26T18:49:23.712Z,3.00
2019-05-26T18:51:51.498Z,4.10
2019-05-26T18:54:18.317Z,3.17
2019-05-26T18:56:44.731Z,3.00
2019-05-26T18:59:11.074Z,3.43
2019-05-26T19:01:37.391Z,3.00
2019-05-26T19:04:04.841Z,3.30
2019-05-26T19:06:31.182Z,3.47
2019-05-26T19:08:57.509Z,2.70
2019-05-26T19:11:23.839Z,3.07
2019-05-26T19:13:50.273Z,3.50
2019-05-26T19:16:16.830Z,3.60
2019-05-26T19:18:43.142Z,3.53
2019-05-26T19:21:09.591Z,3.50
2019-05-26T19:23:35.901Z,3.30
2019-05-26T19:26:02.452Z,3.20
2019-05-26T19:28:28.767Z,2.90
2019-05-26T19:30:55.102Z,3.07
2019-05-26T19:33:21.428Z,2.63
2019-05-26T19:35:47.758Z,2.87
2019-05-26T19:38:14.090Z,2.90
2019-05-26T19:40:40.451Z,3.00
2019-05-26T19:43:06.855Z,3.03
2019-05-26T19:45:33.288Z,3.00
2019-05-26T19:47:59.615Z,3.60
2019-05-26T19:50:26.152Z,3.10
2019-05-26T19:52:52.432Z,3.43
2019-05-26T19:55:18.735Z,3.43
2019-05-26T19:57:45.172Z,3.50
2019-05-26T20:00:15.363Z,2.87
2019-05-26T20:02:42.031Z,3.30
2019-05-26T20:05:08.951Z,3.70
2019-05-26T20:07:35.276Z,3.43
2019-05-26T20:10:03.759Z,3.13
2019-05-26T20:12:30.087Z,3.43
2019-05-26T20:14:56.524Z,3.00
2019-05-26T20:17:23.173Z,3.00
2019-05-26T20:19:49.594Z,3.20
2019-05-26T20:22:16.129Z,2.90
2019-05-26T20:24:42.478Z,3.83
2019-05-26T20:27:08.775Z,2.90
2019-05-26T20:29:35.110Z,3.27
2019-05-26T20:32:01.421Z,3.70
2019-05-26T20:34:27.779Z,3.13
2019-05-26T20:36:54.108Z,3.27
2019-05-26T20:39:20.523Z,3.13
2019-05-26T20:41:46.875Z,3.20
2019-05-26T20:44:13.612Z,2.80
2019-05-26T20:46:40.061Z,3.10
2019-05-26T20:49:06.582Z,2.70
2019-05-26T20:51:33.218Z,2.53
2019-05-26T20:53:59.548Z,3.07
2019-05-26T20:56:26.390Z,2.90
2019-05-26T20:58:52.723Z,2.73
2019-05-26T21:01:19.052Z,2.47
2019-05-26T21:03:45.389Z,3.07
2019-05-26T21:06:12.038Z,2.70
2019-05-26T21:08:38.556Z,2.90
2019-05-26T21:11:05.092Z,2.40
2019-05-26T21:13:31.424Z,2.60
2019-05-26T21:15:57.645Z,2.53
2019-05-26T21:18:23.975Z,2.27
2019-05-26T21:20:50.411Z,2.50
2019-05-26T21:23:16.688Z,2.50
2019-05-26T21:25:43.072Z,2.77
2019-05-26T21:28:09.407Z,2.30
2019-05-26T21:30:35.734Z,2.60
2019-05-26T21:33:02.063Z,2.50
2019-05-26T21:35:28.296Z,2.60
2019-05-26T21:37:54.828Z,2.70
2019-05-26T21:40:21.586Z,2.57
2019-05-26T21:42:48.103Z,2.50
2019-05-26T21:45:14.739Z,2.53
2019-05-26T21:47:41.023Z,2.60
2019-05-26T21:50:08.426Z,2.80
2019-05-26T21:52:35.063Z,2.30
2019-05-26T21:55:01.499Z,2.77
2019-05-26T21:57:27.826Z,2.40
2019-05-26T21:59:54.051Z,2.60
2019-05-26T22:02:20.384Z,2.50
2019-05-26T22:04:46.819Z,2.53
2019-05-26T22:07:13.149Z,2.60
2019-05-26T22:09:39.687Z,2.57
2019-05-26T22:12:06.114Z,2.87
2019-05-26T22:14:32.549Z,2.47
2019-05-26T22:16:58.980Z,2.40
2019-05-26T22:19:25.267Z,2.90
2019-05-26T22:21:51.642Z,2.50
2019-05-26T22:24:17.976Z,2.40
2019-05-26T22:26:44.303Z,2.40
2019-05-26T22:29:10.634Z,2.50
2019-05-26T22:31:36.963Z,2.80
2019-05-26T22:34:03.249Z,3.50
2019-05-26T22:36:29.626Z,3.77
2019-05-26T22:38:56.056Z,2.70
2019-05-26T22:41:22.714Z,2.93
2019-05-26T22:43:49.128Z,2.97
2019-05-26T22:46:15.443Z,3.50
2019-05-26T22:48:41.754Z,3.30
2019-05-26T22:51:08.184Z,3.43
2019-05-26T22:53:34.551Z,3.80
2019-05-26T22:56:00.789Z,3.80
2019-05-26T22:58:27.063Z,3.73
2019-05-26T23:00:53.439Z,3.87
2019-05-26T23:03:19.781Z,3.40
2019-05-26T23:05:46.023Z,4.10
2019-05-26T23:08:12.329Z,4.00
2019-05-26T23:10:38.761Z,4.47
2019-05-26T23:13:05.193Z,5.37
2019-05-26T23:15:31.627Z,5.03
2019-05-26T23:17:57.881Z,5.43
2019-05-26T23:20:24.274Z,4.83
2019-05-26T23:22:50.705Z,4.50
2019-05-26T23:25:17.141Z,4.80
2019-05-26T23:27:43.483Z,4.90
2019-05-26T23:30:11.245Z,5.03
2019-05-26T23:32:37.578Z,4.93
2019-05-26T23:35:04.968Z,4.33
2019-05-26T23:37:31.365Z,4.40
2019-05-26T23:39:57.695Z,4.60
2019-05-26T23:42:24.015Z,5.00
2019-05-26T23:44:50.324Z,4.70
2019-05-26T23:47:16.687Z,4.80
2019-05-26T23:49:43.017Z,4.53
2019-05-26T23:52:09.450Z,4.33
2019-05-26T23:54:35.785Z,4.30
2019-05-26T23:57:02.174Z,4.33
2019-05-26T23:59:28.543Z,4.10
